createdAt,value
2022-11-16T00:03:32.937Z,44.50
2022-11-16T00:08:42.830Z,47.90
2022-11-16T00:13:50.670Z,41.40
2022-11-16T00:19:00.856Z,38.00
2022-11-16T00:24:11.733Z,40.30
2022-11-16T00:29:21.796Z,48.90
2022-11-16T00:34:29.730Z,45.30
2022-11-16T00:39:37.577Z,38.70
2022-11-16T00:44:45.453Z,47.80
2022-11-16T00:49:53.653Z,42.80
2022-11-16T00:55:01.991Z,48.00
2022-11-16T01:00:12.847Z,54.30
2022-11-16T01:05:21.438Z,48.70
2022-11-16T01:10:30.486Z,51.80
2022-11-16T01:15:40.649Z,56.60
2022-11-16T01:20:48.936Z,48.90
2022-11-16T01:26:01.927Z,56.50
2022-11-16T01:31:12.608Z,63.70
2022-11-16T01:36:21.445Z,52.60
2022-11-16T01:46:38.855Z,54.10
2022-11-16T01:51:54.842Z,53.70
2022-11-16T01:57:10.165Z,55.50
2022-11-16T02:02:21.488Z,56.30
2022-11-16T02:07:56.851Z,53.70
2022-11-16T02:13:28.822Z,53.20
2022-11-16T02:18:42.804Z,50.90
2022-11-16T02:24:21.181Z,63.90
2022-11-16T02:29:34.067Z,60.10
2022-11-16T02:34:46.422Z,59.00
2022-11-16T02:39:58.637Z,53.90
2022-11-16T02:45:11.350Z,56.90
2022-11-16T02:50:23.473Z,54.30
2022-11-16T02:55:36.925Z,85.20
2022-11-16T03:00:49.622Z,55.90
2022-11-16T03:06:04.835Z,61.90
2022-11-16T03:11:31.999Z,56.60
2022-11-16T03:16:44.417Z,56.40
2022-11-16T03:21:57.576Z,70.00
2022-11-16T03:27:12.776Z,60.70
2022-11-16T03:32:26.144Z,61.10
2022-11-16T03:37:37.157Z,52.30
2022-11-16T03:42:49.584Z,54.90
2022-11-16T03:47:57.411Z,48.60
2022-11-16T03:53:06.079Z,60.70
2022-11-16T03:58:18.749Z,52.40
2022-11-16T04:03:27.056Z,53.50
2022-11-16T04:08:52.733Z,43.30
2022-11-16T04:14:18.293Z,44.60
2022-11-16T04:19:44.043Z,40.10
2022-11-16T04:24:55.516Z,36.40
2022-11-16T04:30:05.584Z,31.10
2022-11-16T04:35:43.504Z,22.10
2022-11-16T04:40:51.409Z,31.10
2022-11-16T04:46:16.697Z,21.70
2022-11-16T04:51:24.545Z,30.30
2022-11-16T05:01:56.824Z,28.90
2022-11-16T05:07:04.955Z,24.90
2022-11-16T05:12:15.905Z,27.40
2022-11-16T05:17:25.416Z,32.30
2022-11-16T05:22:33.873Z,30.70
2022-11-16T05:27:42.783Z,34.70
2022-11-16T05:37:57.221Z,33.10
2022-11-16T05:43:05.059Z,47.60
2022-11-16T05:48:15.928Z,43.30
2022-11-16T05:53:24.617Z,43.00
2022-11-16T05:58:33.086Z,43.70
2022-11-16T06:03:41.818Z,41.20
2022-11-16T06:08:49.988Z,45.40
2022-11-16T06:14:01.577Z,42.20
2022-11-16T06:19:09.314Z,36.80
2022-11-16T06:29:24.103Z,35.60
2022-11-16T06:34:32.942Z,31.30
2022-11-16T06:39:40.763Z,35.20
2022-11-16T06:44:49.956Z,31.00
2022-11-16T06:49:59.497Z,28.20
2022-11-16T07:00:17.454Z,24.70
2022-11-16T07:05:25.940Z,25.50
2022-11-16T07:10:36.646Z,15.40
2022-11-16T07:15:44.651Z,20.30
2022-11-16T07:26:02.455Z,15.80
2022-11-16T07:31:17.469Z,13.10
2022-11-16T07:36:25.942Z,16.50
2022-11-16T07:41:35.375Z,16.50
2022-11-16T07:46:54.039Z,8.10
2022-11-16T07:52:03.800Z,10.10
2022-11-16T07:57:16.323Z,6.40
2022-11-16T08:02:25.719Z,6.90
2022-11-16T08:07:35.969Z,4.20
2022-11-16T08:12:43.924Z,6.10
2022-11-16T08:23:03.071Z,4.60
2022-11-16T08:28:14.665Z,4.60
2022-11-16T08:33:24.707Z,4.10
2022-11-16T08:38:33.944Z,1.40
2022-11-16T08:43:42.415Z,2.00
2022-11-16T08:48:50.483Z,1.60
2022-11-16T08:54:01.824Z,2.70
2022-11-16T08:59:09.772Z,2.20
2022-11-16T09:04:20.559Z,1.40
2022-11-16T09:09:28.560Z,2.90
2022-11-16T09:14:36.215Z,1.90
2022-11-16T09:19:43.836Z,1.40
2022-11-16T09:24:51.775Z,1.20
2022-11-16T09:29:59.414Z,1.50
2022-11-16T09:35:08.124Z,2.50
2022-11-16T09:40:16.158Z,1.50
2022-11-16T09:50:42.025Z,1.80
2022-11-16T09:55:53.735Z,1.40
2022-11-16T10:01:09.126Z,2.10
2022-11-16T10:06:24.023Z,4.60
2022-11-16T10:11:52.934Z,0.90
2022-11-16T10:17:07.419Z,1.50
2022-11-16T10:22:29.332Z,5.10
2022-11-16T10:27:54.132Z,1.40
2022-11-16T10:33:11.076Z,1.90
2022-11-16T10:38:23.736Z,0.80
2022-11-16T10:43:33.777Z,1.80
2022-11-16T10:48:50.397Z,1.70
2022-11-16T10:53:58.301Z,2.00
2022-11-16T10:59:07.998Z,3.20
2022-11-16T11:04:23.616Z,3.10
2022-11-16T11:09:33.948Z,1.40
2022-11-16T11:15:01.245Z,6.00
2022-11-16T11:20:22.080Z,2.80
2022-11-16T11:25:34.502Z,1.90
2022-11-16T11:30:42.516Z,1.70
2022-11-16T11:41:06.526Z,2.10
2022-11-16T11:46:20.415Z,2.80
2022-11-16T11:51:34.783Z,1.80
2022-11-16T11:56:42.640Z,1.70
2022-11-16T12:02:11.050Z,2.00
2022-11-16T12:07:33.198Z,3.50
2022-11-16T12:12:51.866Z,3.30
2022-11-16T12:18:11.545Z,2.50
2022-11-16T12:23:32.492Z,2.50
2022-11-16T12:28:58.201Z,2.30
2022-11-16T12:34:17.015Z,3.40
2022-11-16T12:39:33.423Z,4.00
2022-11-16T12:44:59.844Z,3.70
2022-11-16T12:50:17.739Z,8.10
2022-11-16T12:55:35.927Z,8.80
2022-11-16T13:00:54.770Z,3.70
2022-11-16T13:06:06.123Z,3.10
2022-11-16T13:11:17.607Z,2.10
2022-11-16T13:16:27.161Z,2.40
2022-11-16T13:21:44.528Z,5.90
2022-11-16T13:27:01.953Z,3.10
2022-11-16T13:32:15.334Z,5.50
2022-11-16T13:37:44.631Z,2.70
2022-11-16T13:43:06.147Z,4.20
2022-11-16T13:48:21.170Z,5.10
2022-11-16T13:59:01.286Z,3.40
2022-11-16T14:04:35.231Z,2.40
2022-11-16T14:09:49.904Z,2.00
2022-11-16T14:15:17.068Z,1.90
2022-11-16T14:20:44.137Z,4.50
2022-11-16T14:25:56.786Z,5.20
2022-11-16T14:31:15.815Z,2.20
2022-11-16T14:36:38.869Z,5.30
2022-11-16T14:41:48.470Z,3.50
2022-11-16T14:46:55.852Z,3.80
2022-11-16T14:52:07.031Z,3.30
2022-11-16T14:57:21.249Z,6.60
2022-11-16T15:02:29.358Z,2.30
2022-11-16T15:07:36.383Z,3.20
2022-11-16T15:12:51.471Z,6.60
2022-11-16T15:18:13.071Z,5.60
2022-11-16T15:23:23.837Z,14.20
2022-11-16T15:28:34.962Z,4.50
2022-11-16T15:33:45.328Z,4.40
2022-11-16T15:38:54.082Z,15.60
2022-11-16T15:44:14.442Z,3.90
2022-11-16T15:49:30.091Z,5.40
2022-11-16T15:54:52.025Z,4.90
2022-11-16T15:59:59.294Z,5.80
2022-11-16T16:05:07.082Z,7.40
2022-11-16T16:10:25.867Z,8.80
2022-11-16T16:15:36.230Z,7.80
2022-11-16T16:20:49.993Z,8.10
2022-11-16T16:25:56.832Z,6.60
2022-11-16T16:31:03.746Z,14.60
2022-11-16T16:36:13.801Z,8.00
2022-11-16T16:41:24.466Z,7.00
2022-11-16T16:46:31.743Z,6.80
2022-11-16T16:51:38.623Z,5.00
2022-11-16T16:56:45.599Z,6.00
2022-11-16T17:01:53.028Z,6.30
2022-11-16T17:07:00.085Z,2.90
2022-11-16T17:12:07.506Z,3.90
2022-11-16T17:17:14.457Z,6.20
2022-11-16T17:22:22.284Z,7.90
2022-11-16T17:27:29.246Z,4.00
2022-11-16T17:32:36.156Z,10.30
2022-11-16T17:37:43.586Z,9.80
2022-11-16T17:42:50.522Z,3.00
2022-11-16T17:47:57.492Z,6.10
2022-11-16T17:53:04.460Z,5.80
2022-11-16T17:58:11.401Z,7.40
2022-11-16T18:03:18.448Z,5.70
2022-11-16T18:08:25.546Z,6.30
2022-11-16T18:13:32.872Z,6.20
2022-11-16T18:18:43.173Z,6.90
2022-11-16T18:23:50.251Z,6.30
2022-11-16T18:28:57.129Z,4.60
2022-11-16T18:34:04.461Z,6.10
2022-11-16T18:39:11.483Z,9.50
2022-11-16T18:44:18.420Z,5.90
2022-11-16T18:49:25.280Z,5.60
2022-11-16T18:54:32.222Z,7.40
2022-11-16T18:59:39.351Z,7.40
2022-11-16T19:04:46.337Z,3.70
2022-11-16T19:09:53.505Z,15.30
2022-11-16T19:15:00.601Z,9.20
2022-11-16T19:20:09.033Z,7.50
2022-11-16T19:25:21.518Z,4.10
2022-11-16T19:30:28.494Z,9.40
2022-11-16T19:35:35.431Z,4.50
2022-11-16T19:40:42.306Z,7.30
2022-11-16T19:45:49.276Z,6.70
2022-11-16T19:50:56.198Z,4.80
2022-11-16T19:56:03.423Z,5.30
2022-11-16T20:01:13.223Z,5.10
2022-11-16T20:06:22.730Z,4.70
2022-11-16T20:11:31.688Z,7.40
2022-11-16T20:16:39.837Z,7.30
2022-11-16T20:21:46.826Z,6.50
2022-11-16T20:26:53.837Z,6.40
2022-11-16T20:32:00.683Z,4.40
2022-11-16T20:37:08.699Z,6.30
2022-11-16T20:42:15.657Z,5.90
2022-11-16T20:47:22.511Z,6.70
2022-11-16T20:52:29.405Z,7.40
2022-11-16T20:57:36.403Z,5.40
2022-11-16T21:02:43.304Z,7.80
2022-11-16T21:07:50.194Z,9.60
2022-11-16T21:13:16.827Z,7.00
2022-11-16T21:18:30.377Z,6.20
2022-11-16T21:23:40.129Z,7.80
2022-11-16T21:28:47.487Z,7.30
2022-11-16T21:33:55.479Z,7.10
2022-11-16T21:44:10.220Z,5.30
2022-11-16T21:49:17.130Z,7.40
2022-11-16T21:54:44.283Z,7.60
2022-11-16T21:59:51.495Z,10.00
2022-11-16T22:05:21.557Z,11.90
2022-11-16T22:10:28.720Z,8.10
2022-11-16T22:15:35.845Z,7.20
2022-11-16T22:20:42.995Z,7.80
2022-11-16T22:25:50.042Z,7.40
2022-11-16T22:31:04.433Z,8.10
2022-11-16T22:36:13.499Z,7.80
2022-11-16T22:41:21.179Z,10.00
2022-11-16T22:46:28.174Z,7.40
2022-11-16T22:51:35.242Z,6.90
2022-11-16T22:56:42.678Z,6.70
2022-11-16T23:01:49.534Z,6.40
2022-11-16T23:06:56.519Z,7.50
2022-11-16T23:12:21.146Z,12.10
2022-11-16T23:17:28.138Z,6.90
2022-11-16T23:22:52.951Z,7.70
2022-11-16T23:28:04.385Z,6.90
2022-11-16T23:33:11.759Z,10.40
2022-11-16T23:38:18.736Z,9.80
2022-11-16T23:43:43.577Z,8.50
2022-11-16T23:48:50.536Z,6.80
2022-11-16T23:53:57.972Z,5.20
2022-11-16T23:59:04.876Z,7.40
